DW6345 Murcia ES current weather conditions

sailwx.info

Wind from 312 at 13 knots gusting 19

Air temperature 23.3° C
Dewpoint 6.1° C

Last reported at 2015-Jan-30 11:44 UTC.
Time now 2015-Jan-30 12:32 UTC

Location: N 37°60' W 001°06'.
View on Google Maps.

See reports from other nearby stations

  
Tides and Currents Weather Stations Pressure Air Temp Water Temp Dewpoint Dewpoint Depression Visibility Wind Speed Wind Dir Waves Ship Positions
date/time (UTC)wind fromknots sea level pressurealtimeterstation pressurevisibilityair tempwater tempwave heightnotes
2015-Jan-30 11:44 312 13 gusting 19 23.3
2015-Jan-30 11:34 310 10 gusting 25 23.3
2015-Jan-30 11:24 273 13 gusting 25 23.3
2015-Jan-30 11:14 275 9 gusting 24 22.8
2015-Jan-30 11:04 270 11 gusting 19 21.7
2015-Jan-30 10:54 285 1 gusting 4 21.1
2015-Jan-30 10:44 266 0 gusting 4 20.6
2015-Jan-30 10:34 090 0 gusting 4 20.0
2015-Jan-30 10:24 006 0 gusting 6 18.9
2015-Jan-30 10:14 315 0 gusting 4 18.3
2015-Jan-30 10:04 045 1 gusting 6 17.8
2015-Jan-30 09:54 266 17.2
2015-Jan-30 09:44 222 2 gusting 4 16.1
2015-Jan-30 09:34 009 2 gusting 5 15.6
2015-Jan-30 09:24 180 1 gusting 5 15.0
2015-Jan-30 09:14 269 0 gusting 2 14.4
2015-Jan-30 09:04 002 13.3
2015-Jan-30 08:54 180 0 gusting 2 13.3
2015-Jan-30 08:44 045 1 gusting 5 12.2
2015-Jan-30 08:34 014 0 gusting 2 12.2
2015-Jan-30 08:24 270 0 gusting 5 11.7
2015-Jan-30 08:14 314 1 gusting 5 11.1
2015-Jan-30 08:04 270 0 gusting 2 11.1
2015-Jan-30 07:54 320 0 gusting 6 11.1
2015-Jan-30 07:44 180 3 gusting 6 11.1
2015-Jan-30 07:34 086 11.1
2015-Jan-30 07:24 007 1 gusting 2 11.1
2015-Jan-30 07:14 037 1 gusting 6 10.6
2015-Jan-30 07:04 045 2 gusting 2 11.1
2015-Jan-30 06:54 006 0 gusting 2 11.1
2015-Jan-30 06:44 041 11.1
2015-Jan-30 06:34 315 0 gusting 4 11.1
2015-Jan-30 06:24 045 0 gusting 5 11.7
2015-Jan-30 06:14 049 1 gusting 4 12.8
2015-Jan-30 06:04 180 2 gusting 4 12.8
2015-Jan-30 05:54 180 1 gusting 4 12.8
2015-Jan-30 05:44 180 2 gusting 5 12.2
2015-Jan-30 05:34 177 2 gusting 5 12.2
2015-Jan-30 05:24 040 0 gusting 2 12.8
2015-Jan-30 05:14 180 0 gusting 2 12.2
2015-Jan-30 05:04 090 0 gusting 2 12.8
2015-Jan-30 04:54 090 1 gusting 4 12.8
2015-Jan-30 04:44 045 1 gusting 4 12.8
2015-Jan-30 04:34 180 0 gusting 4 12.8
2015-Jan-30 04:24 180 2 gusting 5 12.8
2015-Jan-30 04:14 180 1 gusting 5 12.8
2015-Jan-30 04:04 270 0 gusting 5 12.2
2015-Jan-30 03:54 180 2 gusting 4 12.8
2015-Jan-30 03:44 138 0 gusting 5 13.3
2015-Jan-30 03:34 180 1 gusting 6 13.9
2015-Jan-30 03:24 001 4 gusting 6 13.9
2015-Jan-30 03:14 272 0 gusting 1 13.9
2015-Jan-30 03:04 248 13.9
2015-Jan-30 02:54 090 13.9
2015-Jan-30 02:44 315 2 gusting 6 13.9
2015-Jan-30 02:34 270 1 gusting 5 13.3
2015-Jan-30 02:24 048 0 gusting 4 13.9
2015-Jan-30 02:14 135 0 gusting 4 14.4
2015-Jan-30 02:04 270 2 gusting 2 13.9
2015-Jan-30 01:54 272 0 gusting 2 13.3
2015-Jan-30 01:44 270 0 gusting 5 13.3
2015-Jan-30 01:34 087 2 gusting 5 13.9
2015-Jan-30 01:24 178 1 gusting 4 14.4
2015-Jan-30 01:14 270 0 gusting 2 14.4
2015-Jan-30 01:04 225 0 gusting 2 15.0
2015-Jan-30 00:54 041 0 gusting 5 15.0
2015-Jan-30 00:44 270 2 gusting 6 15.0
2015-Jan-30 00:34 315 0 gusting 5 15.0
2015-Jan-30 00:24 321 1 gusting 5 15.0
2015-Jan-30 00:14 270 0 gusting 6 15.0
2015-Jan-30 00:04 270 2 gusting 6 15.0
2015-Jan-29 23:54 315 4 gusting 11 15.0
2015-Jan-29 23:44 273 5 gusting 11 15.0
2015-Jan-29 23:34 273 5 gusting 8 14.4
2015-Jan-29 23:24 315 4 gusting 6 14.4
2015-Jan-29 23:14 312 2 gusting 5 14.4
2015-Jan-29 23:04 270 1 gusting 6 15.0
2015-Jan-29 22:54 273 2 gusting 8 15.6
2015-Jan-29 22:44 270 3 gusting 10 15.6
2015-Jan-29 22:34 267 2 gusting 6 15.0
2015-Jan-29 22:24 315 0 gusting 2 14.4
2015-Jan-29 22:14 270 0 gusting 5 15.0
2015-Jan-29 22:04 270 1 gusting 6 15.6
2015-Jan-29 21:54 270 1 gusting 5 15.6
2015-Jan-29 21:44 270 2 gusting 6 15.6
2015-Jan-29 21:34 315 2 gusting 4 15.0
2015-Jan-29 21:24 315 0 gusting 2 15.0
2015-Jan-29 21:14 310 1 gusting 4 15.0
2015-Jan-29 21:04 315 1 gusting 4 15.0
2015-Jan-29 20:54 315 2 gusting 4 15.0
2015-Jan-29 20:44 011 0 gusting 2 15.6
2015-Jan-29 20:34 270 0 gusting 2 15.6
2015-Jan-29 20:24 270 1 gusting 4 16.1
2015-Jan-29 20:14 270 0 gusting 2 16.1
2015-Jan-29 20:04 001 2 gusting 4 16.1
2015-Jan-29 19:54 270 2 gusting 5 16.1
2015-Jan-29 19:44 270 1 gusting 4 16.7
2015-Jan-29 19:34 308 0 gusting 1 16.7
2015-Jan-29 19:24 138 17.2
2015-Jan-29 19:14 315 0 gusting 5 17.2
2015-Jan-29 19:04 270 2 gusting 7 17.8
2015-Jan-29 18:54 315 2 gusting 5 17.2
2015-Jan-29 18:44 270 17.2
2015-Jan-29 18:34 013 0 gusting 2 17.2
2015-Jan-29 18:24 312 0 gusting 5 17.8
2015-Jan-29 18:14 270 0 gusting 11 17.8
2015-Jan-29 18:04 016 7 gusting 11 17.8
2015-Jan-29 17:54 045 6 gusting 10 17.8
2015-Jan-29 17:44 318 4 gusting 8 18.3
2015-Jan-29 17:34 002 5 gusting 11 18.3
2015-Jan-29 17:24 001 3 gusting 13 18.9
2015-Jan-29 17:14 007 6 gusting 10 19.4
2015-Jan-29 17:04 270 6 gusting 11 20.0
2015-Jan-29 16:54 012 4 gusting 8 20.6
2015-Jan-29 16:44 315 2 gusting 6 20.6
2015-Jan-29 16:34 315 3 gusting 6 20.6
2015-Jan-29 16:24 009 5 gusting 6 20.6
2015-Jan-29 16:14 276 2 gusting 6 21.1
2015-Jan-29 16:04 270 2 gusting 10 21.1
2015-Jan-29 15:54 272 5 gusting 10 21.1
2015-Jan-29 15:44 270 5 gusting 11 21.1
2015-Jan-29 15:34 276 4 gusting 10 21.7
2015-Jan-29 15:24 270 4 gusting 10 21.7
2015-Jan-29 15:14 271 4 gusting 8 21.7
2015-Jan-29 15:04 315 5 gusting 8 22.2
2015-Jan-29 14:54 270 2 gusting 6 22.2
2015-Jan-29 14:44 045 0 gusting 2 22.2
2015-Jan-29 14:34 225 0 gusting 5 21.7
2015-Jan-29 14:24 270 1 gusting 5 21.7
2015-Jan-29 14:14 275 1 gusting 5 21.7
2015-Jan-29 14:04 315 4 gusting 6 21.1
2015-Jan-29 13:54 270 2 gusting 6 20.6
2015-Jan-29 13:44 310 3 gusting 6 20.6
2015-Jan-29 13:24 270 3 gusting 6 20.0
2015-Jan-29 13:14 310 4 gusting 6 20.0
2015-Jan-29 13:04 270 1 gusting 6 19.4
2015-Jan-29 12:54 045 2 gusting 5 19.4
2015-Jan-29 12:44 315 1 gusting 5 19.4
2015-Jan-29 12:34 315 0 gusting 4 18.9
2015-Jan-29 12:24 265 1 gusting 5 18.3
2015-Jan-29 12:14 270 1 gusting 5 18.3
2015-Jan-29 12:04 270 2 gusting 5 17.8
2015-Jan-29 11:54 315 1 gusting 6 17.8
2015-Jan-29 11:44 270 2 gusting 6 17.2
2015-Jan-29 11:34 315 1 gusting 6 16.7
2015-Jan-29 11:24 184 2 gusting 6 16.7
2015-Jan-29 11:14 270 2 gusting 6 16.1
2015-Jan-29 11:04 315 2 gusting 6 15.6
2015-Jan-29 10:54 270 5 gusting 6 15.6
2015-Jan-29 10:44 292 4 gusting 6 15.0
2015-Jan-29 10:34 227 5 gusting 6 15.0
2015-Jan-29 10:24 273 2 gusting 8 14.4
2015-Jan-29 10:14 272 2 gusting 5 14.4
2015-Jan-29 10:04 270 2 gusting 6 13.9
2015-Jan-29 09:54 273 2 gusting 6 13.9
2015-Jan-29 09:44 312 3 gusting 6 13.3
2015-Jan-29 09:34 270 2 gusting 6 12.8
2015-Jan-29 09:24 273 2 gusting 10 12.2
2015-Jan-29 09:14 270 4 gusting 6 11.7
2015-Jan-29 09:04 270 5 gusting 6 11.1
2015-Jan-29 08:54 270 2 gusting 5 10.6
2015-Jan-29 08:44 270 1 gusting 6 10.6
2015-Jan-29 08:34 273 2 gusting 6 10.0
2015-Jan-29 08:24 315 5 gusting 7 10.6
2015-Jan-29 08:14 311 3 gusting 8 11.1
2015-Jan-29 08:04 315 2 gusting 6 10.6
2015-Jan-29 07:54 270 5 gusting 6 10.6
2015-Jan-29 07:44 267 4 gusting 8 10.0
2015-Jan-29 07:34 270 5 gusting 7 10.0
2015-Jan-29 07:24 270 2 gusting 6 10.0
2015-Jan-29 07:14 228 3 gusting 6 9.4
2015-Jan-29 07:04 270 1 gusting 5 9.4
2015-Jan-29 06:54 269 1 gusting 6 9.4
2015-Jan-29 06:44 270 4 gusting 6 9.4
2015-Jan-29 05:44 225 37 gusting 5 -10.0
2015-Jan-29 05:34 225 37 gusting 5 -10.0
2015-Jan-29 05:24 225 37 gusting 5 -10.0
2015-Jan-29 05:14 225 37 gusting 5 -10.0
2015-Jan-29 05:04 225 37 gusting 5 -10.0
2015-Jan-29 04:54 225 37 gusting 5 -10.0
2015-Jan-29 04:44 225 37 gusting 6 -10.0
2015-Jan-29 04:34 225 1 gusting 2 9.4
2015-Jan-29 04:24 225 1 gusting 2 9.4
2015-Jan-29 04:14 225 1 gusting 5 9.4
2015-Jan-29 04:04 270 2 gusting 5 8.3
2015-Jan-29 03:54 270 2 gusting 5 8.3
2015-Jan-29 03:44 270 2 gusting 5 8.3
2015-Jan-29 03:34 270 2 gusting 5 8.3
2015-Jan-29 03:24 270 2 gusting 5 8.3
2015-Jan-29 03:14 225 2 gusting 5 7.8
2015-Jan-29 03:04 225 2 gusting 5 7.8
2015-Jan-29 02:54 225 2 gusting 5 7.8
2015-Jan-29 02:44 225 4 gusting 5 7.8
2015-Jan-29 02:34 225 4 gusting 5 7.8
2015-Jan-29 02:24 180 1 gusting 5 7.8
2015-Jan-29 02:14 225 2 gusting 5 8.3
2015-Jan-29 02:04 001 1 gusting 2 8.3
2015-Jan-29 01:54 180 1 gusting 2 8.9
2015-Jan-29 01:44 050 9.4
2015-Jan-29 01:34 315 5 gusting 8 9.4
2015-Jan-29 01:24 312 3 gusting 6 9.4
2015-Jan-29 01:14 270 3 gusting 8 9.4
2015-Jan-29 01:04 315 6 gusting 8 8.9
2015-Jan-29 00:54 249 2 gusting 7 8.3
2015-Jan-29 00:44 227 4 gusting 6 8.3
2015-Jan-29 00:34 273 4 gusting 7 8.9
2015-Jan-29 00:24 244 4 gusting 7 8.9
2015-Jan-29 00:14 180 2 gusting 6 9.4
2015-Jan-29 00:04 270 4 gusting 6 9.4
2015-Jan-28 23:54 270 4 gusting 6 10.0
2015-Jan-28 23:44 270 1 gusting 5 10.0
2015-Jan-28 23:34 270 2 gusting 6 10.0
2015-Jan-28 23:24 10.0
2015-Jan-28 23:14 273 4 gusting 8 10.0
2015-Jan-28 23:04 270 4 gusting 8 10.6
2015-Jan-28 22:54 270 2 gusting 6 10.0
2015-Jan-28 22:44 275 5 gusting 6 10.0
2015-Jan-28 22:34 012 1 gusting 6 10.0
2015-Jan-28 22:24 228 3 gusting 6 10.0
2015-Jan-28 22:14 180 2 gusting 5 10.0
2015-Jan-28 22:04 315 2 gusting 6 10.6
2015-Jan-28 21:54 313 1 gusting 6 10.6
2015-Jan-28 21:44 270 4 gusting 6 11.1
2015-Jan-28 21:34 320 0 gusting 4 11.1
2015-Jan-28 21:24 270 2 gusting 7 11.7
2015-Jan-28 21:14 270 6 gusting 7 11.7
2015-Jan-28 21:04 180 1 gusting 5 11.7
2015-Jan-28 20:54 159 2 gusting 6 11.7
2015-Jan-28 20:44 270 2 gusting 5 11.7
2015-Jan-28 20:34 270 2 gusting 5 11.7
2015-Jan-28 20:24 222 2 gusting 6 11.7
2015-Jan-28 20:14 179 2 gusting 5 11.7
2015-Jan-28 20:04 270 1 gusting 4 12.2
2015-Jan-28 19:54 270 2 gusting 4 12.2
2015-Jan-28 19:44 315 0 gusting 2 12.8
2015-Jan-28 19:34 270 1 gusting 5 12.8
2015-Jan-28 19:24 315 12.8
2015-Jan-28 19:14 228 0 gusting 5 12.8
2015-Jan-28 19:04 315 2 gusting 5 12.8
2015-Jan-28 18:54 039 0 gusting 4 12.8
2015-Jan-28 18:44 135 13.3
2015-Jan-28 18:34 133 0 gusting 4 13.3
2015-Jan-28 18:24 272 1 gusting 4 13.3
2015-Jan-28 18:14 096 0 gusting 2 13.9
2015-Jan-28 18:04 180 0 gusting 2 14.4
2015-Jan-28 17:54 180 0 gusting 4 14.4
2015-Jan-28 17:44 140 0 gusting 4 15.0
2015-Jan-28 17:34 180 2 gusting 5 15.0
2015-Jan-28 17:24 201 1 gusting 5 15.6
2015-Jan-28 17:14 138 2 gusting 5 16.7
2015-Jan-28 17:04 180 0 gusting 2 17.2
2015-Jan-28 16:54 180 1 gusting 5 17.2
2015-Jan-28 16:44 180 2 gusting 8 17.8
2015-Jan-28 16:34 180 5 gusting 8 18.9
2015-Jan-28 16:24 180 1 gusting 6 19.4
2015-Jan-28 16:14 225 1 gusting 6 18.9
2015-Jan-28 16:04 225 4 gusting 6 18.3
2015-Jan-28 15:54 225 1 gusting 6 18.3
2015-Jan-28 15:44 225 2 gusting 6 18.3
2015-Jan-28 15:34 225 5 gusting 6 18.3
2015-Jan-28 15:24 008 4 gusting 6 18.3
2015-Jan-28 15:14 315 4 gusting 6 18.9
2015-Jan-28 15:04 225 2 gusting 5 18.9
2015-Jan-28 14:54 075 1 gusting 4 18.3
2015-Jan-28 14:44 315 1 gusting 8 18.3
2015-Jan-28 14:34 272 4 gusting 8 17.8
2015-Jan-28 14:24 315 3 gusting 10 17.8
2015-Jan-28 14:14 315 3 gusting 6 17.8
2015-Jan-28 14:04 270 4 gusting 8 17.2
2015-Jan-28 13:54 272 4 gusting 11 17.2
2015-Jan-28 13:44 273 2 gusting 13 16.7
2015-Jan-28 13:34 270 6 gusting 11 16.7
2015-Jan-28 13:24 270 5 gusting 11 16.7
2015-Jan-28 13:14 270 8 gusting 13 16.1
2015-Jan-28 13:04 270 2 gusting 11 16.1
2015-Jan-28 12:54 270 6 gusting 14 15.6
2015-Jan-28 12:44 315 6 gusting 14 15.6
2015-Jan-28 12:34 274 8 gusting 13 15.6
2015-Jan-28 12:24 311 6 gusting 15 15.0
2015-Jan-28 12:14 040 8 gusting 19 15.0
2015-Jan-28 12:04 045 12 gusting 18 14.4